Flight Track Log - Related Links

Times and Time Zones

All times are in EDT time to prevent confusion due to time zone crossing. See the JUS327 flight status page for this flight to view local times or setup timezone preferences in your user account.

Time Position Orientation Groundspeed Altitude Reporting Facility
EDT Latitude Longitude Course Direction KTS MPH feet Rate Location/Type
Thu 08:14:23 PM 32.4769 -93.8822 305° West 197 227 3,000  Level Fort Worth Center
Thu 08:16:15 PM 32.3775 -93.9794 220° Southwest 304 350 7,700 2,547 Climbing Fort Worth Center
Thu 08:17:15 PM 32.3125 -94.0458 221° Southwest 291 335 10,300 2,450 Climbing Fort Worth Center
Thu 08:18:15 PM 32.2514 -94.1069 220° Southwest 310 357 12,600 2,750 Climbing Fort Worth Center
Thu 08:19:15 PM 32.1761 -94.1858 222° Southwest 321 369 15,800 2,850 Climbing Fort Worth Center
Thu 08:20:15 PM 32.1131 -94.2494 221° Southwest 332 382 18,300 2,300 Climbing Fort Worth Center
Thu 08:21:15 PM 32.0419 -94.3231 221° Southwest 337 388 20,400 2,350 Climbing Fort Worth Center
Thu 08:22:15 PM 31.9686 -94.3989 221° Southwest 347 399 23,000 1,850 Climbing Fort Worth Center
Thu 08:23:15 PM 31.8911 -94.4822 222° Southwest 360 414 24,100 1,150 Climbing Fort Worth Center
Thu 08:24:15 PM 31.8033 -94.5681 220° Southwest 391 450 25,300 1,500 Climbing Fort Worth Center
Thu 08:26:11 PM 31.6311 -94.7433 221° Southwest 426 490 28,500 1,685 Climbing Houston Center
Thu 08:27:13 PM 31.5408 -94.8314 220° Southwest 424 488 30,300 1,597 Climbing Houston Center
Thu 08:28:15 PM 31.4542 -94.9200 221° Southwest 416 479 31,800 1,645 Climbing Houston Center
Thu 08:29:17 PM 31.3503 -95.0233 220° Southwest 412 474 33,700 1,065 Climbing Houston Center
Thu 08:30:19 PM 31.2636 -95.1089 220° Southwest 412 474 34,000 145 Climbing Houston Center
Thu 08:31:21 PM 31.1753 -95.1939 219° Southwest 412 474 34,000  Level Houston Center
Thu 08:32:23 PM 31.0886 -95.2786 220° Southwest 409 471 34,000  Level Houston Center
Thu 08:33:25 PM 31.0006 -95.3650 220° Southwest 412 474 34,000  Level Houston Center
Thu 08:34:27 PM 30.8956 -95.4681 220° Southwest 412 474 34,000  Level Houston Center
Thu 08:35:29 PM 30.8086 -95.5547 221° Southwest 410 472 34,000  Level Houston Center
Thu 08:36:31 PM 30.7211 -95.6419 221° Southwest 414 476 34,000  Level Houston Center
Thu 08:37:33 PM 30.6422 -95.7183 220° Southwest 411 473 34,000  Level Houston Center
Thu 08:38:35 PM 30.5389 -95.8189 220° Southwest 407 468 34,000  Level Houston Center
Thu 08:39:37 PM 30.4528 -95.9042 220° Southwest 407 468 34,000  Level Houston Center
Thu 08:40:39 PM 30.3661 -95.9894 220° Southwest 410 472 34,000  Level Houston Center
Thu 08:41:41 PM 30.2653 -96.0833 219° Southwest 412 474 34,000  Level Houston Center
Thu 08:42:43 PM 30.1822 -96.1750 224° Southwest 411 473 34,000 -48 Level Houston Center
Thu 08:43:45 PM 30.1075 -96.2769 230° Southwest 405 466 33,900 -48 Descending Houston Center
Thu 08:44:47 PM 30.0358 -96.3783 231° Southwest 406 467 33,900  Level Houston Center
Thu 08:45:50 PM 29.9589 -96.4728 227° Southwest 405 466 33,900  Level Houston Center
Thu 08:46:52 PM 29.8794 -96.5661 226° Southwest 407 468 33,900  Level Houston Center
Thu 08:47:54 PM 29.8025 -96.6619 227° Southwest 407 468 33,900  Level Houston Center
Thu 08:48:56 PM 29.7111 -96.7775 228° Southwest 408 470 33,900  Level Houston Center
Thu 08:49:58 PM 29.6375 -96.8747 229° Southwest 406 467 33,900  Level Houston Center
Thu 08:51:00 PM 29.5658 -96.9744 230° Southwest 409 471 33,900  Level Houston Center
Thu 08:52:02 PM 29.4928 -97.0733 230° Southwest 412 474 33,900  Level Houston Center
Thu 08:53:03 PM 29.3983 -97.1853 226° Southwest 413 475 33,900  Level Houston Center
Thu 08:54:06 PM 29.3194 -97.2817 227° Southwest 416 479 33,900  Level Houston Center
Thu 08:55:07 PM 29.2425 -97.3781 228° Southwest 413 475 33,900  Level Houston Center
Thu 08:56:08 PM 29.1653 -97.4753 228° Southwest 414 476 33,900  Level Houston Center
Thu 08:57:10 PM 29.0872 -97.5708 227° Southwest 412 474 33,900  Level Houston Center
Thu 08:58:12 PM 29.0092 -97.6681 227° Southwest 414 476 33,900  Level Houston Center
Thu 08:59:13 PM 28.9314 -97.7647 227° Southwest 416 479 33,900  Level Houston Center
Thu 09:00:15 PM 28.8372 -97.8808 227° Southwest 415 478 33,900  Level Houston Center
Thu 09:01:17 PM 28.7594 -97.9778 228° Southwest 415 478 33,900  Level Houston Center
Thu 09:02:18 PM 28.6806 -98.0739 227° Southwest 416 479 33,900  Level Houston Center
Thu 09:03:20 PM 28.6011 -98.1692 226° Southwest 416 479 33,900  Level Houston Center
Thu 09:04:21 PM 28.5233 -98.2664 228° Southwest 416 479 33,900 49 Level Houston Center
Thu 09:05:23 PM 28.4400 -98.3683 227° Southwest 416 479 34,000  Climbing Houston Center
Thu 09:06:25 PM 28.3597 -98.4639 226° Southwest 417 480 33,900 -49 Descending Houston Center
Thu 09:07:26 PM 28.2819 -98.5600 227° Southwest 416 479 33,900 49 Level Houston Center
Thu 09:08:28 PM 28.2028 -98.6561 227° Southwest 417 480 34,000  Climbing Houston Center
Thu 09:09:29 PM 28.1078 -98.7711 227° Southwest 418 481 33,900 -49 Descending Houston Center
Thu 09:10:31 PM 28.0286 -98.8675 227° Southwest 420 483 33,900  Level Houston Center
Thu 09:11:33 PM 27.9483 -98.9639 227° Southwest 424 488 33,900  Level Houston Center
Thu 09:12:34 PM 27.8678 -99.0594 226° Southwest 423 487 33,900  Level Houston Center
Thu 09:13:36 PM 27.7892 -99.1561 227° Southwest 423 487 33,900  Level Houston Center
Thu 09:14:37 PM 27.7089 -99.2522 227° Southwest 425 489 33,900  Level Houston Center
Thu 09:15:39 PM 27.6119 -99.3658 226° Southwest 423 487 33,900  Level Houston Center
Thu 09:16:41 PM 27.5317 -99.4611 226° Southwest 424 488 33,900  Level Houston Center
Thu 09:18:00 PM 27.4272 -99.5351 249° West  Level FlightAware Approximate
Thu 09:25:00 PM 26.8389 -99.9853 211° Southwest  Level FlightAware Approximate
Thu 09:26:00 PM 26.7513 -100.0451 214° Southwest  Level FlightAware Approximate
Thu 09:27:00 PM 26.6664 -100.1096 214° Southwest  Level FlightAware Approximate
Thu 09:28:00 PM 26.5815 -100.1741 214° Southwest  Level FlightAware Approximate
Thu 09:29:00 PM 26.4966 -100.2385 214° Southwest  Level FlightAware Approximate
Thu 09:30:00 PM 26.4116 -100.3029 214° Southwest  Level FlightAware Approximate
Thu 09:31:00 PM 26.3267 -100.3671 214° Southwest  Level FlightAware Approximate
Thu 09:32:00 PM 26.2416 -100.4312 214° Southwest  Level FlightAware Approximate
Thu 09:33:00 PM 26.1545 -100.4915 211° Southwest  Level FlightAware Approximate
Thu 09:34:00 PM 26.0664 -100.5502 210° Southwest  Level FlightAware Approximate
Thu 09:35:00 PM 25.9774 -100.6069 210° Southwest  Level FlightAware Approximate
Thu 09:36:00 PM 25.8883 -100.6635 210° Southwest  Level FlightAware Approximate
Thu 09:37:00 PM 25.8030 -100.7270 214° Southwest  Level FlightAware Approximate
Thu 09:38:00 PM 25.7179 -100.7907 214° Southwest  Level FlightAware Approximate
Thu 09:39:00 PM 25.6301 -100.8441 214° Southwest  Level FlightAware Approximate
Thu 09:40:00 PM 25.5450 -100.9079 214° Southwest  Level FlightAware Approximate
Thu 09:41:00 PM 25.5333 -100.9167 North  Level FlightAware Approximate
Thu 09:42:00 PM 25.5495 -100.9287 North  Level Estimated
Thu 09:43:00 PM 25.5495 -100.9287 North  Level Estimated
Thu 09:44:00 PM 25.5495 -100.9287 North  Level Estimated
Thu 09:45:00 PM 25.5495 -100.9287 North  Level Estimated
Thu 09:46:00 PM 25.5495 -100.9287 North  Level Estimated
Thu 09:47:00 PM 25.5495 -100.9287 North  Level Estimated
Thu 09:48:00 PM 25.5495 -100.9287 North  Level Estimated
Thu 09:49:00 PM 25.5495 -100.9287 North  Level Estimated
Thu 09:50:00 PM 25.5495 -100.9287 North  Level Estimated
Thu 09:51:00 PM 25.5495 -100.9287 North  Level Estimated
Thu 09:52:00 PM 25.5495 -100.9287 North  Level Estimated
Thu 09:53:00 PM 25.5495 -100.9287 North  Level Estimated
Thu 09:54:00 PM 25.5495 -100.9287 North  Level Estimated
Thu 09:55:00 PM 25.5495 -100.9287 North  Level Estimated
Thu 09:56:00 PM 25.5495 -100.9287 North  Level Estimated
Thu 09:57:00 PM 25.5495 -100.9287 North  Level Estimated
Thu 09:58:00 PM 25.5495 -100.9287 North  Level Estimated
Thu 09:59:00 PM 25.5495 -100.9287 North  Level Estimated
Thu 10:00:00 PM 25.5495 -100.9287 North  Level Estimated

Login

Don't have an account? Register now (free) for customized features, flight alerts, and more!